sensor_id;sensor_type;location;lat;lon;timestamp;temperature;humidity
32787;DHT22;19139;49.372;8.580;2022-11-21T00:01:00;18.40;97.20
32787;DHT22;19139;49.372;8.580;2022-11-21T00:03:27;18.40;97.20
32787;DHT22;19139;49.372;8.580;2022-11-21T00:05:54;18.40;97.20
32787;DHT22;19139;49.372;8.580;2022-11-21T00:08:21;18.40;97.20
32787;DHT22;19139;49.372;8.580;2022-11-21T00:10:47;18.40;97.20
32787;DHT22;19139;49.372;8.580;2022-11-21T00:13:16;18.40;97.20
32787;DHT22;19139;49.372;8.580;2022-11-21T00:15:45;18.40;97.20
32787;DHT22;19139;49.372;8.580;2022-11-21T00:18:12;18.40;97.20
32787;DHT22;19139;49.372;8.580;2022-11-21T00:20:39;18.40;97.20
32787;DHT22;19139;49.372;8.580;2022-11-21T00:23:11;18.40;97.20
32787;DHT22;19139;49.372;8.580;2022-11-21T00:25:38;18.40;97.20
32787;DHT22;19139;49.372;8.580;2022-11-21T00:28:09;18.40;97.10
32787;DHT22;19139;49.372;8.580;2022-11-21T00:30:41;18.40;97.10
32787;DHT22;19139;49.372;8.580;2022-11-21T00:33:07;18.40;97.10
32787;DHT22;19139;49.372;8.580;2022-11-21T00:35:35;18.40;97.10
32787;DHT22;19139;49.372;8.580;2022-11-21T00:38:01;18.40;97.10
32787;DHT22;19139;49.372;8.580;2022-11-21T00:40:28;18.40;97.10
32787;DHT22;19139;49.372;8.580;2022-11-21T00:42:59;18.40;97.10
32787;DHT22;19139;49.372;8.580;2022-11-21T00:45:26;18.40;97.40
32787;DHT22;19139;49.372;8.580;2022-11-21T00:47:53;18.40;97.10
32787;DHT22;19139;49.372;8.580;2022-11-21T00:50:19;18.40;97.10
32787;DHT22;19139;49.372;8.580;2022-11-21T00:52:55;18.40;97.10
32787;DHT22;19139;49.372;8.580;2022-11-21T00:55:25;18.40;97.00
32787;DHT22;19139;49.372;8.580;2022-11-21T00:57:51;18.40;97.00
32787;DHT22;19139;49.372;8.580;2022-11-21T01:00:18;18.40;97.00
32787;DHT22;19139;49.372;8.580;2022-11-21T01:02:50;18.40;97.00
32787;DHT22;19139;49.372;8.580;2022-11-21T01:05:16;18.40;97.00
32787;DHT22;19139;49.372;8.580;2022-11-21T01:07:43;18.40;97.00
32787;DHT22;19139;49.372;8.580;2022-11-21T01:10:09;18.30;97.00
32787;DHT22;19139;49.372;8.580;2022-11-21T01:12:36;18.30;97.00
32787;DHT22;19139;49.372;8.580;2022-11-21T01:15:03;18.40;97.00
32787;DHT22;19139;49.372;8.580;2022-11-21T01:17:31;18.40;97.00
32787;DHT22;19139;49.372;8.580;2022-11-21T01:19:58;18.40;97.00
32787;DHT22;19139;49.372;8.580;2022-11-21T01:22:30;18.40;97.00
32787;DHT22;19139;49.372;8.580;2022-11-21T01:24:57;18.40;97.00
32787;DHT22;19139;49.372;8.580;2022-11-21T01:27:29;18.40;97.00
32787;DHT22;19139;49.372;8.580;2022-11-21T01:30:00;18.40;97.00
32787;DHT22;19139;49.372;8.580;2022-11-21T01:32:27;18.40;97.00
32787;DHT22;19139;49.372;8.580;2022-11-21T01:34:54;18.40;97.00
32787;DHT22;19139;49.372;8.580;2022-11-21T01:37:20;18.30;97.00
32787;DHT22;19139;49.372;8.580;2022-11-21T01:39:47;18.30;97.00
32787;DHT22;19139;49.372;8.580;2022-11-21T01:42:13;18.40;97.00
32787;DHT22;19139;49.372;8.580;2022-11-21T01:44:58;18.30;97.10
32787;DHT22;19139;49.372;8.580;2022-11-21T01:47:25;18.30;97.00
32787;DHT22;19139;49.372;8.580;2022-11-21T01:49:52;18.30;97.00
32787;DHT22;19139;49.372;8.580;2022-11-21T01:52:28;18.40;97.10
32787;DHT22;19139;49.372;8.580;2022-11-21T01:55:05;18.30;97.10
32787;DHT22;19139;49.372;8.580;2022-11-21T01:57:38;18.30;97.10
32787;DHT22;19139;49.372;8.580;2022-11-21T02:00:21;18.30;97.10
32787;DHT22;19139;49.372;8.580;2022-11-21T02:03:03;18.30;97.10
32787;DHT22;19139;49.372;8.580;2022-11-21T02:05:36;18.30;97.00
32787;DHT22;19139;49.372;8.580;2022-11-21T02:08:07;18.30;97.10
32787;DHT22;19139;49.372;8.580;2022-11-21T02:10:37;18.30;97.10
32787;DHT22;19139;49.372;8.580;2022-11-21T02:13:05;18.30;97.10
32787;DHT22;19139;49.372;8.580;2022-11-21T02:15:31;18.30;97.10
32787;DHT22;19139;49.372;8.580;2022-11-21T02:18:07;18.30;97.00
32787;DHT22;19139;49.372;8.580;2022-11-21T02:20:35;18.30;97.00
32787;DHT22;19139;49.372;8.580;2022-11-21T02:25:42;18.30;97.00
32787;DHT22;19139;49.372;8.580;2022-11-21T02:28:16;18.30;97.00
32787;DHT22;19139;49.372;8.580;2022-11-21T02:30:45;18.30;97.00
32787;DHT22;19139;49.372;8.580;2022-11-21T02:33:13;18.30;97.00
32787;DHT22;19139;49.372;8.580;2022-11-21T02:35:57;18.30;97.00
32787;DHT22;19139;49.372;8.580;2022-11-21T02:38:34;18.30;97.00
32787;DHT22;19139;49.372;8.580;2022-11-21T02:41:11;18.30;97.00
32787;DHT22;19139;49.372;8.580;2022-11-21T02:43:50;18.30;97.00
32787;DHT22;19139;49.372;8.580;2022-11-21T02:46:24;18.30;96.90
32787;DHT22;19139;49.372;8.580;2022-11-21T02:48:57;18.30;96.90
32787;DHT22;19139;49.372;8.580;2022-11-21T02:51:23;18.30;96.90
32787;DHT22;19139;49.372;8.580;2022-11-21T02:53:55;18.30;96.90
32787;DHT22;19139;49.372;8.580;2022-11-21T02:56:22;18.30;96.90
32787;DHT22;19139;49.372;8.580;2022-11-21T02:58:53;18.30;96.90
32787;DHT22;19139;49.372;8.580;2022-11-21T03:01:25;18.30;96.90
32787;DHT22;19139;49.372;8.580;2022-11-21T03:03:51;18.20;96.90
32787;DHT22;19139;49.372;8.580;2022-11-21T03:06:23;18.30;96.90
32787;DHT22;19139;49.372;8.580;2022-11-21T03:08:54;18.30;96.90
32787;DHT22;19139;49.372;8.580;2022-11-21T03:11:26;18.20;96.80
32787;DHT22;19139;49.372;8.580;2022-11-21T03:13:52;18.30;96.90
32787;DHT22;19139;49.372;8.580;2022-11-21T03:16:24;18.20;96.80
32787;DHT22;19139;49.372;8.580;2022-11-21T03:18:55;18.20;96.80
32787;DHT22;19139;49.372;8.580;2022-11-21T03:21:23;18.20;96.80
32787;DHT22;19139;49.372;8.580;2022-11-21T03:23:54;18.20;96.80
32787;DHT22;19139;49.372;8.580;2022-11-21T03:26:21;18.30;96.80
32787;DHT22;19139;49.372;8.580;2022-11-21T03:28:53;18.20;96.80
32787;DHT22;19139;49.372;8.580;2022-11-21T03:31:24;18.20;96.80
32787;DHT22;19139;49.372;8.580;2022-11-21T03:33:56;18.20;96.80
32787;DHT22;19139;49.372;8.580;2022-11-21T03:36:22;18.20;96.80
32787;DHT22;19139;49.372;8.580;2022-11-21T03:38:55;18.20;96.80
32787;DHT22;19139;49.372;8.580;2022-11-21T03:41:25;18.20;96.80
32787;DHT22;19139;49.372;8.580;2022-11-21T03:44:10;18.20;96.80
32787;DHT22;19139;49.372;8.580;2022-11-21T03:46:44;18.20;96.80
32787;DHT22;19139;49.372;8.580;2022-11-21T03:49:12;18.20;96.80
32787;DHT22;19139;49.372;8.580;2022-11-21T03:51:44;18.20;96.80
32787;DHT22;19139;49.372;8.580;2022-11-21T03:54:16;18.20;96.80
32787;DHT22;19139;49.372;8.580;2022-11-21T03:56:42;18.20;96.80
32787;DHT22;19139;49.372;8.580;2022-11-21T03:59:14;18.20;96.80
32787;DHT22;19139;49.372;8.580;2022-11-21T04:01:45;18.30;96.80
32787;DHT22;19139;49.372;8.580;2022-11-21T04:04:12;18.20;96.80
32787;DHT22;19139;49.372;8.580;2022-11-21T04:06:43;18.20;96.80
32787;DHT22;19139;49.372;8.580;2022-11-21T04:09:15;18.30;96.80
32787;DHT22;19139;49.372;8.580;2022-11-21T04:11:42;18.20;96.80
32787;DHT22;19139;49.372;8.580;2022-11-21T04:14:13;18.20;96.80
32787;DHT22;19139;49.372;8.580;2022-11-21T04:16:45;18.20;96.80
32787;DHT22;19139;49.372;8.580;2022-11-21T04:19:11;18.20;96.80
32787;DHT22;19139;49.372;8.580;2022-11-21T04:21:43;18.20;96.80
32787;DHT22;19139;49.372;8.580;2022-11-21T04:24:14;18.20;96.80
32787;DHT22;19139;49.372;8.580;2022-11-21T04:26:41;18.20;96.70
32787;DHT22;19139;49.372;8.580;2022-11-21T04:29:12;18.20;96.80
32787;DHT22;19139;49.372;8.580;2022-11-21T04:31:44;18.30;96.80
32787;DHT22;19139;49.372;8.580;2022-11-21T04:34:15;18.20;96.80
32787;DHT22;19139;49.372;8.580;2022-11-21T04:36:42;18.20;96.80
32787;DHT22;19139;49.372;8.580;2022-11-21T04:39:13;18.20;96.80
32787;DHT22;19139;49.372;8.580;2022-11-21T04:41:45;18.20;96.70
32787;DHT22;19139;49.372;8.580;2022-11-21T04:44:11;18.20;96.70
32787;DHT22;19139;49.372;8.580;2022-11-21T04:46:43;18.20;96.80
32787;DHT22;19139;49.372;8.580;2022-11-21T04:49:14;18.20;96.80
32787;DHT22;19139;49.372;8.580;2022-11-21T04:51:41;18.20;96.80
32787;DHT22;19139;49.372;8.580;2022-11-21T04:54:12;18.20;96.70
32787;DHT22;19139;49.372;8.580;2022-11-21T04:56:44;18.20;96.80
32787;DHT22;19139;49.372;8.580;2022-11-21T04:59:15;18.20;96.80
32787;DHT22;19139;49.372;8.580;2022-11-21T05:01:42;18.20;96.80
32787;DHT22;19139;49.372;8.580;2022-11-21T05:04:14;18.20;96.80
32787;DHT22;19139;49.372;8.580;2022-11-21T05:06:45;18.20;96.80
32787;DHT22;19139;49.372;8.580;2022-11-21T05:09:12;18.20;96.70
32787;DHT22;19139;49.372;8.580;2022-11-21T05:11:43;18.20;96.70
32787;DHT22;19139;49.372;8.580;2022-11-21T05:14:33;18.20;96.70
32787;DHT22;19139;49.372;8.580;2022-11-21T05:17:05;18.20;96.70
32787;DHT22;19139;49.372;8.580;2022-11-21T05:19:31;18.20;96.70
32787;DHT22;19139;49.372;8.580;2022-11-21T05:22:03;18.20;96.80
32787;DHT22;19139;49.372;8.580;2022-11-21T05:24:35;18.20;96.70
32787;DHT22;19139;49.372;8.580;2022-11-21T05:27:02;18.20;96.70
32787;DHT22;19139;49.372;8.580;2022-11-21T05:29:33;18.20;96.70
32787;DHT22;19139;49.372;8.580;2022-11-21T05:32:01;18.20;96.70
32787;DHT22;19139;49.372;8.580;2022-11-21T05:34:32;18.20;96.70
32787;DHT22;19139;49.372;8.580;2022-11-21T05:37:04;18.20;96.70
32787;DHT22;19139;49.372;8.580;2022-11-21T05:39:36;18.20;96.80
32787;DHT22;19139;49.372;8.580;2022-11-21T05:42:02;18.20;96.70
32787;DHT22;19139;49.372;8.580;2022-11-21T05:44:34;18.20;96.70
32787;DHT22;19139;49.372;8.580;2022-11-21T05:47:05;18.20;96.80
32787;DHT22;19139;49.372;8.580;2022-11-21T05:49:32;18.20;96.80
32787;DHT22;19139;49.372;8.580;2022-11-21T05:52:03;18.10;96.70
32787;DHT22;19139;49.372;8.580;2022-11-21T05:54:35;18.20;96.70
32787;DHT22;19139;49.372;8.580;2022-11-21T05:57:02;18.20;96.80
32787;DHT22;19139;49.372;8.580;2022-11-21T05:59:33;18.10;96.70
32787;DHT22;19139;49.372;8.580;2022-11-21T06:02:05;18.10;96.70
32787;DHT22;19139;49.372;8.580;2022-11-21T06:04:55;18.20;96.80
32787;DHT22;19139;49.372;8.580;2022-11-21T06:07:22;18.20;96.80
32787;DHT22;19139;49.372;8.580;2022-11-21T06:09:53;18.20;96.80
32787;DHT22;19139;49.372;8.580;2022-11-21T06:12:20;18.20;96.80
32787;DHT22;19139;49.372;8.580;2022-11-21T06:14:51;18.20;96.70
32787;DHT22;19139;49.372;8.580;2022-11-21T06:17:23;18.20;96.80
32787;DHT22;19139;49.372;8.580;2022-11-21T06:19:54;18.20;96.80
32787;DHT22;19139;49.372;8.580;2022-11-21T06:22:26;18.10;96.80
32787;DHT22;19139;49.372;8.580;2022-11-21T06:24:52;18.20;96.80
32787;DHT22;19139;49.372;8.580;2022-11-21T06:27:24;18.10;96.80
32787;DHT22;19139;49.372;8.580;2022-11-21T06:29:55;18.20;96.90
32787;DHT22;19139;49.372;8.580;2022-11-21T06:32:22;18.10;96.80
32787;DHT22;19139;49.372;8.580;2022-11-21T06:34:53;18.20;96.80
32787;DHT22;19139;49.372;8.580;2022-11-21T06:37:25;18.20;96.80
32787;DHT22;19139;49.372;8.580;2022-11-21T06:39:51;18.10;96.80
32787;DHT22;19139;49.372;8.580;2022-11-21T06:42:23;18.10;96.80
32787;DHT22;19139;49.372;8.580;2022-11-21T06:44:54;18.10;96.80
32787;DHT22;19139;49.372;8.580;2022-11-21T06:47:26;18.10;96.80
32787;DHT22;19139;49.372;8.580;2022-11-21T06:49:52;18.10;96.80
32787;DHT22;19139;49.372;8.580;2022-11-21T06:52:24;18.20;96.80
32787;DHT22;19139;49.372;8.580;2022-11-21T06:54:55;18.10;96.80
32787;DHT22;19139;49.372;8.580;2022-11-21T06:57:22;18.10;96.80
32787;DHT22;19139;49.372;8.580;2022-11-21T06:59:53;18.10;96.80
32787;DHT22;19139;49.372;8.580;2022-11-21T07:02:25;18.20;96.80
32787;DHT22;19139;49.372;8.580;2022-11-21T07:04:52;18.10;96.80
32787;DHT22;19139;49.372;8.580;2022-11-21T07:07:24;18.10;96.80
32787;DHT22;19139;49.372;8.580;2022-11-21T07:09:55;18.10;96.80
32787;DHT22;19139;49.372;8.580;2022-11-21T07:12:22;18.10;96.80
32787;DHT22;19139;49.372;8.580;2022-11-21T07:15:07;18.10;97.10
32787;DHT22;19139;49.372;8.580;2022-11-21T07:17:34;18.10;96.70
32787;DHT22;19139;49.372;8.580;2022-11-21T07:20:01;18.20;96.80
32787;DHT22;19139;49.372;8.580;2022-11-21T07:22:28;18.10;96.70
32787;DHT22;19139;49.372;8.580;2022-11-21T07:24:54;18.10;96.70
32787;DHT22;19139;49.372;8.580;2022-11-21T07:27:26;18.10;96.70
32787;DHT22;19139;49.372;8.580;2022-11-21T07:29:57;18.10;96.70
32787;DHT22;19139;49.372;8.580;2022-11-21T07:32:25;18.10;96.70
32787;DHT22;19139;49.372;8.580;2022-11-21T07:34:56;18.10;96.70
32787;DHT22;19139;49.372;8.580;2022-11-21T07:37:28;18.10;96.70
32787;DHT22;19139;49.372;8.580;2022-11-21T07:39:54;18.10;96.70
32787;DHT22;19139;49.372;8.580;2022-11-21T07:42:26;18.10;96.70
32787;DHT22;19139;49.372;8.580;2022-11-21T07:44:58;18.20;96.70
32787;DHT22;19139;49.372;8.580;2022-11-21T07:47:24;18.10;96.70
32787;DHT22;19139;49.372;8.580;2022-11-21T07:49:56;18.10;96.70
32787;DHT22;19139;49.372;8.580;2022-11-21T07:52:27;18.10;96.70
32787;DHT22;19139;49.372;8.580;2022-11-21T07:54:56;18.20;96.70
32787;DHT22;19139;49.372;8.580;2022-11-21T07:57:28;18.10;96.70
32787;DHT22;19139;49.372;8.580;2022-11-21T07:59:54;18.10;96.70
32787;DHT22;19139;49.372;8.580;2022-11-21T08:02:27;18.10;96.70
32787;DHT22;19139;49.372;8.580;2022-11-21T08:04:54;18.10;96.70
32787;DHT22;19139;49.372;8.580;2022-11-21T08:07:25;18.10;96.70
32787;DHT22;19139;49.372;8.580;2022-11-21T08:09:57;18.10;96.60
32787;DHT22;19139;49.372;8.580;2022-11-21T08:12:23;18.10;96.70
32787;DHT22;19139;49.372;8.580;2022-11-21T08:14:55;18.10;96.60
32787;DHT22;19139;49.372;8.580;2022-11-21T08:17:26;18.10;96.70
32787;DHT22;19139;49.372;8.580;2022-11-21T08:19:53;18.10;96.60
32787;DHT22;19139;49.372;8.580;2022-11-21T08:22:25;18.10;96.60
32787;DHT22;19139;49.372;8.580;2022-11-21T08:24:57;18.10;96.60
32787;DHT22;19139;49.372;8.580;2022-11-21T08:27:23;18.10;96.60
32787;DHT22;19139;49.372;8.580;2022-11-21T08:29:55;18.10;96.60
32787;DHT22;19139;49.372;8.580;2022-11-21T08:32:26;18.10;96.60
32787;DHT22;19139;49.372;8.580;2022-11-21T08:34:58;18.10;96.60
32787;DHT22;19139;49.372;8.580;2022-11-21T08:37:26;18.10;96.60
32787;DHT22;19139;49.372;8.580;2022-11-21T08:39:54;18.10;96.60
32787;DHT22;19139;49.372;8.580;2022-11-21T08:42:26;18.10;96.60
32787;DHT22;19139;49.372;8.580;2022-11-21T08:44:58;18.10;96.60
32787;DHT22;19139;49.372;8.580;2022-11-21T08:47:24;18.10;96.60
32787;DHT22;19139;49.372;8.580;2022-11-21T08:49:56;18.10;96.60
32787;DHT22;19139;49.372;8.580;2022-11-21T08:52:27;18.10;96.60
32787;DHT22;19139;49.372;8.580;2022-11-21T08:54:54;18.10;96.60
32787;DHT22;19139;49.372;8.580;2022-11-21T08:57:25;18.10;96.60
32787;DHT22;19139;49.372;8.580;2022-11-21T08:59:57;18.10;96.60
32787;DHT22;19139;49.372;8.580;2022-11-21T09:02:23;18.10;96.60
32787;DHT22;19139;49.372;8.580;2022-11-21T09:04:55;18.10;96.60
32787;DHT22;19139;49.372;8.580;2022-11-21T09:07:26;18.10;96.60
32787;DHT22;19139;49.372;8.580;2022-11-21T09:09:58;18.10;96.60
32787;DHT22;19139;49.372;8.580;2022-11-21T09:12:24;18.10;96.60
32787;DHT22;19139;49.372;8.580;2022-11-21T09:14:56;18.10;96.80
32787;DHT22;19139;49.372;8.580;2022-11-21T09:17:46;18.10;96.60
32787;DHT22;19139;49.372;8.580;2022-11-21T09:20:41;18.10;96.60
32787;DHT22;19139;49.372;8.580;2022-11-21T09:23:14;18.10;96.60
32787;DHT22;19139;49.372;8.580;2022-11-21T09:25:46;18.10;96.60
32787;DHT22;19139;49.372;8.580;2022-11-21T09:28:13;18.10;96.60
32787;DHT22;19139;49.372;8.580;2022-11-21T09:30:41;18.20;96.60
32787;DHT22;19139;49.372;8.580;2022-11-21T09:33:14;18.10;96.60
32787;DHT22;19139;49.372;8.580;2022-11-21T09:35:47;18.10;96.60
32787;DHT22;19139;49.372;8.580;2022-11-21T09:38:13;18.10;96.60
32787;DHT22;19139;49.372;8.580;2022-11-21T09:40:46;18.10;96.60
32787;DHT22;19139;49.372;8.580;2022-11-21T09:43:45;18.20;96.60
32787;DHT22;19139;49.372;8.580;2022-11-21T09:46:24;18.10;96.60
32787;DHT22;19139;49.372;8.580;2022-11-21T09:48:59;18.20;96.60
32787;DHT22;19139;49.372;8.580;2022-11-21T09:51:36;18.10;96.50
32787;DHT22;19139;49.372;8.580;2022-11-21T09:54:21;18.10;96.50
32787;DHT22;19139;49.372;8.580;2022-11-21T09:56:53;18.10;96.50
32787;DHT22;19139;49.372;8.580;2022-11-21T09:59:36;18.10;96.50
32787;DHT22;19139;49.372;8.580;2022-11-21T10:02:16;18.10;96.50
32787;DHT22;19139;49.372;8.580;2022-11-21T10:04:49;18.20;96.60
32787;DHT22;19139;49.372;8.580;2022-11-21T10:07:28;18.20;96.60
32787;DHT22;19139;49.372;8.580;2022-11-21T10:10:03;18.20;96.50
32787;DHT22;19139;49.372;8.580;2022-11-21T10:16:02;18.20;96.50
32787;DHT22;19139;49.372;8.580;2022-11-21T10:24:11;18.20;96.40
32787;DHT22;19139;49.372;8.580;2022-11-21T10:26:55;18.20;96.40
32787;DHT22;19139;49.372;8.580;2022-11-21T10:29:38;18.20;96.40
32787;DHT22;19139;49.372;8.580;2022-11-21T10:32:28;18.20;96.40
32787;DHT22;19139;49.372;8.580;2022-11-21T10:35:00;18.20;96.40
32787;DHT22;19139;49.372;8.580;2022-11-21T10:37:37;18.20;96.40
32787;DHT22;19139;49.372;8.580;2022-11-21T10:40:17;18.20;96.40
32787;DHT22;19139;49.372;8.580;2022-11-21T10:42:59;18.30;96.40
32787;DHT22;19139;49.372;8.580;2022-11-21T10:45:47;18.20;96.40
32787;DHT22;19139;49.372;8.580;2022-11-21T10:48:13;18.20;96.40
32787;DHT22;19139;49.372;8.580;2022-11-21T10:53:33;18.30;96.50
32787;DHT22;19139;49.372;8.580;2022-11-21T10:56:20;18.30;96.40
32787;DHT22;19139;49.372;8.580;2022-11-21T10:58:50;18.30;96.40
32787;DHT22;19139;49.372;8.580;2022-11-21T11:01:28;18.30;96.50
32787;DHT22;19139;49.372;8.580;2022-11-21T11:07:19;18.30;96.40
32787;DHT22;19139;49.372;8.580;2022-11-21T11:09:47;18.30;96.40
32787;DHT22;19139;49.372;8.580;2022-11-21T11:12:30;18.30;96.40
32787;DHT22;19139;49.372;8.580;2022-11-21T11:15:23;18.30;96.40
32787;DHT22;19139;49.372;8.580;2022-11-21T11:17:58;18.30;96.40
32787;DHT22;19139;49.372;8.580;2022-11-21T11:20:43;18.30;96.40
32787;DHT22;19139;49.372;8.580;2022-11-21T11:25:47;18.40;96.40
32787;DHT22;19139;49.372;8.580;2022-11-21T11:28:14;18.30;96.40
32787;DHT22;19139;49.372;8.580;2022-11-21T11:30:42;18.40;96.40
32787;DHT22;19139;49.372;8.580;2022-11-21T11:33:35;18.40;96.40
32787;DHT22;19139;49.372;8.580;2022-11-21T11:38:50;18.40;96.40
32787;DHT22;19139;49.372;8.580;2022-11-21T11:44:26;18.40;96.40
32787;DHT22;19139;49.372;8.580;2022-11-21T11:47:23;18.40;96.30
32787;DHT22;19139;49.372;8.580;2022-11-21T11:50:04;18.40;96.30
32787;DHT22;19139;49.372;8.580;2022-11-21T11:52:59;18.40;96.30
32787;DHT22;19139;49.372;8.580;2022-11-21T11:55:45;18.40;96.40
32787;DHT22;19139;49.372;8.580;2022-11-21T12:00:48;18.40;96.40
32787;DHT22;19139;49.372;8.580;2022-11-21T12:04:32;18.40;96.40
32787;DHT22;19139;49.372;8.580;2022-11-21T12:09:36;18.40;96.30
32787;DHT22;19139;49.372;8.580;2022-11-21T12:21:24;18.50;96.40
32787;DHT22;19139;49.372;8.580;2022-11-21T12:32:05;18.50;96.30
32787;DHT22;19139;49.372;8.580;2022-11-21T12:37:37;18.50;96.30
32787;DHT22;19139;49.372;8.580;2022-11-21T12:45:54;18.50;96.30
32787;DHT22;19139;49.372;8.580;2022-11-21T12:57:17;18.60;96.40
32787;DHT22;19139;49.372;8.580;2022-11-21T13:00:20;18.60;96.30
32787;DHT22;19139;49.372;8.580;2022-11-21T13:03:21;18.60;96.30
32787;DHT22;19139;49.372;8.580;2022-11-21T13:05:58;18.60;96.40
32787;DHT22;19139;49.372;8.580;2022-11-21T13:08:34;18.60;96.40
32787;DHT22;19139;49.372;8.580;2022-11-21T13:11:31;18.60;96.40
32787;DHT22;19139;49.372;8.580;2022-11-21T13:17:54;18.60;96.40
32787;DHT22;19139;49.372;8.580;2022-11-21T13:20:33;18.60;96.40
32787;DHT22;19139;49.372;8.580;2022-11-21T13:23:34;18.60;96.40
32787;DHT22;19139;49.372;8.580;2022-11-21T13:29:12;18.60;96.40
32787;DHT22;19139;49.372;8.580;2022-11-21T13:31:44;18.60;96.40
32787;DHT22;19139;49.372;8.580;2022-11-21T13:34:33;18.60;96.40
32787;DHT22;19139;49.372;8.580;2022-11-21T13:37:05;18.60;96.40
32787;DHT22;19139;49.372;8.580;2022-11-21T13:39:37;18.60;96.40
32787;DHT22;19139;49.372;8.580;2022-11-21T13:42:09;18.60;96.40
32787;DHT22;19139;49.372;8.580;2022-11-21T13:45:36;18.60;96.40
32787;DHT22;19139;49.372;8.580;2022-11-21T13:51:02;18.60;96.30
32787;DHT22;19139;49.372;8.580;2022-11-21T13:54:10;18.60;96.30
32787;DHT22;19139;49.372;8.580;2022-11-21T13:59:59;18.60;96.40
32787;DHT22;19139;49.372;8.580;2022-11-21T14:07:40;18.60;96.40
32787;DHT22;19139;49.372;8.580;2022-11-21T14:12:51;18.60;96.30
32787;DHT22;19139;49.372;8.580;2022-11-21T14:18:00;18.60;96.30
32787;DHT22;19139;49.372;8.580;2022-11-21T14:20:33;18.60;96.30
32787;DHT22;19139;49.372;8.580;2022-11-21T14:23:18;18.60;96.30
32787;DHT22;19139;49.372;8.580;2022-11-21T14:25:48;18.60;96.30
32787;DHT22;19139;49.372;8.580;2022-11-21T14:28:26;18.60;96.30
32787;DHT22;19139;49.372;8.580;2022-11-21T14:31:00;18.60;96.30
32787;DHT22;19139;49.372;8.580;2022-11-21T14:33:29;18.60;96.30
32787;DHT22;19139;49.372;8.580;2022-11-21T14:36:19;18.60;96.30
32787;DHT22;19139;49.372;8.580;2022-11-21T14:38:53;18.60;96.30
32787;DHT22;19139;49.372;8.580;2022-11-21T14:41:40;18.60;96.30
32787;DHT22;19139;49.372;8.580;2022-11-21T14:46:36;18.60;96.30
32787;DHT22;19139;49.372;8.580;2022-11-21T14:54:46;18.60;96.30
32787;DHT22;19139;49.372;8.580;2022-11-21T14:57:40;18.60;96.30
32787;DHT22;19139;49.372;8.580;2022-11-21T15:00:10;18.60;96.30
32787;DHT22;19139;49.372;8.580;2022-11-21T15:02:57;18.60;96.30
32787;DHT22;19139;49.372;8.580;2022-11-21T15:05:32;18.60;96.30
32787;DHT22;19139;49.372;8.580;2022-11-21T15:08:23;18.60;96.30
32787;DHT22;19139;49.372;8.580;2022-11-21T15:11:10;18.60;96.30
32787;DHT22;19139;49.372;8.580;2022-11-21T15:13:37;18.60;96.60
32787;DHT22;19139;49.372;8.580;2022-11-21T15:16:25;18.60;96.30
32787;DHT22;19139;49.372;8.580;2022-11-21T15:18:51;18.60;96.30
32787;DHT22;19139;49.372;8.580;2022-11-21T15:21:18;18.60;96.30
32787;DHT22;19139;49.372;8.580;2022-11-21T15:23:45;18.50;96.30
32787;DHT22;19139;49.372;8.580;2022-11-21T15:26:30;18.60;96.30
32787;DHT22;19139;49.372;8.580;2022-11-21T15:28:58;18.60;96.30
32787;DHT22;19139;49.372;8.580;2022-11-21T15:31:30;18.60;96.30
32787;DHT22;19139;49.372;8.580;2022-11-21T15:36:31;18.60;96.30
32787;DHT22;19139;49.372;8.580;2022-11-21T15:46:32;18.50;96.30
32787;DHT22;19139;49.372;8.580;2022-11-21T15:49:05;18.60;96.30
32787;DHT22;19139;49.372;8.580;2022-11-21T15:51:39;18.50;96.30
32787;DHT22;19139;49.372;8.580;2022-11-21T15:54:26;18.50;96.30
32787;DHT22;19139;49.372;8.580;2022-11-21T15:56:53;18.50;96.30
32787;DHT22;19139;49.372;8.580;2022-11-21T15:59:20;18.50;96.30
32787;DHT22;19139;49.372;8.580;2022-11-21T16:01:46;18.50;96.30
32787;DHT22;19139;49.372;8.580;2022-11-21T16:04:13;18.50;96.30
32787;DHT22;19139;49.372;8.580;2022-11-21T16:06:45;18.50;96.30
32787;DHT22;19139;49.372;8.580;2022-11-21T16:09:16;18.50;96.30
32787;DHT22;19139;49.372;8.580;2022-11-21T16:11:48;18.50;96.30
32787;DHT22;19139;49.372;8.580;2022-11-21T16:14:20;18.50;96.30
32787;DHT22;19139;49.372;8.580;2022-11-21T16:16:46;18.50;96.30
32787;DHT22;19139;49.372;8.580;2022-11-21T16:19:18;18.50;96.30
32787;DHT22;19139;49.372;8.580;2022-11-21T16:21:49;18.50;96.30
32787;DHT22;19139;49.372;8.580;2022-11-21T16:24:16;18.50;96.60
32787;DHT22;19139;49.372;8.580;2022-11-21T16:26:47;18.50;96.30
32787;DHT22;19139;49.372;8.580;2022-11-21T16:29:18;18.50;96.30
32787;DHT22;19139;49.372;8.580;2022-11-21T16:31:50;18.50;96.30
32787;DHT22;19139;49.372;8.580;2022-11-21T16:34:18;18.50;96.30
32787;DHT22;19139;49.372;8.580;2022-11-21T16:36:50;18.50;96.30
32787;DHT22;19139;49.372;8.580;2022-11-21T16:39:16;18.50;96.30
32787;DHT22;19139;49.372;8.580;2022-11-21T16:41:44;18.50;96.30
32787;DHT22;19139;49.372;8.580;2022-11-21T16:44:16;18.50;96.30
32787;DHT22;19139;49.372;8.580;2022-11-21T16:46:48;18.50;96.30
32787;DHT22;19139;49.372;8.580;2022-11-21T16:49:17;18.50;96.30
32787;DHT22;19139;49.372;8.580;2022-11-21T16:51:50;18.50;96.30
32787;DHT22;19139;49.372;8.580;2022-11-21T16:54:17;18.50;96.30
32787;DHT22;19139;49.372;8.580;2022-11-21T16:56:48;18.50;96.30
32787;DHT22;19139;49.372;8.580;2022-11-21T16:59:20;18.50;96.30
32787;DHT22;19139;49.372;8.580;2022-11-21T17:01:46;18.50;96.30
32787;DHT22;19139;49.372;8.580;2022-11-21T17:04:18;18.50;96.30
32787;DHT22;19139;49.372;8.580;2022-11-21T17:06:49;18.50;96.30
32787;DHT22;19139;49.372;8.580;2022-11-21T17:09:16;18.50;96.30
32787;DHT22;19139;49.372;8.580;2022-11-21T17:11:48;18.50;96.30
32787;DHT22;19139;49.372;8.580;2022-11-21T17:14:19;18.50;96.70
32787;DHT22;19139;49.372;8.580;2022-11-21T17:16:51;18.50;96.40
32787;DHT22;19139;49.372;8.580;2022-11-21T17:19:17;18.50;96.30
32787;DHT22;19139;49.372;8.580;2022-11-21T17:21:49;18.50;96.30
32787;DHT22;19139;49.372;8.580;2022-11-21T17:24:20;18.50;96.30
32787;DHT22;19139;49.372;8.580;2022-11-21T17:26:47;18.50;96.30
32787;DHT22;19139;49.372;8.580;2022-11-21T17:29:18;18.50;96.30
32787;DHT22;19139;49.372;8.580;2022-11-21T17:31:50;18.50;96.30
32787;DHT22;19139;49.372;8.580;2022-11-21T17:34:17;18.50;96.30
32787;DHT22;19139;49.372;8.580;2022-11-21T17:36:48;18.50;96.30
32787;DHT22;19139;49.372;8.580;2022-11-21T17:39:20;18.50;96.30
32787;DHT22;19139;49.372;8.580;2022-11-21T17:41:55;18.50;96.40
32787;DHT22;19139;49.372;8.580;2022-11-21T17:44:27;18.50;96.40
32787;DHT22;19139;49.372;8.580;2022-11-21T17:46:58;18.50;96.30
32787;DHT22;19139;49.372;8.580;2022-11-21T17:49:27;18.50;96.30
32787;DHT22;19139;49.372;8.580;2022-11-21T17:52:00;18.50;96.30